Time;durP1;ratioP1;P1;durP2;ratioP2;P2;SDS_P1;SDS_P2;PMS_P1;PMS_P2;Temp;Humidity;BMP_temperature;BMP_pressure;BME280_temperature;BME280_humidity;BME280_pressure;Samples;Min_cycle;Max_cycle;Signal;HPM_P1;HPM_P2
2022/01/01 00:00:14;;;;;;;21.27;15.30;;;;;;;11.27;100.00;102387.13;5228057;28;20040;-64
2022/01/01 00:02:45;;;;;;;22.77;13.30;;;;;;;11.26;100.00;102389.00;5228188;28;20025;-62
2022/01/01 00:05:15;;;;;;;13.10;11.73;;;;;;;11.27;100.00;102385.25;5227826;28;20067;-64
2022/01/01 00:07:46;;;;;;;20.20;13.98;;;;;;;11.29;100.00;102393.13;5228567;28;20087;-64
2022/01/01 00:10:18;;;;;;;22.20;16.65;;;;;;;11.20;100.00;102381.81;5228253;28;20033;-64
2022/01/01 00:12:49;;;;;;;18.60;14.35;;;;;;;11.35;100.00;102403.91;5228442;28;20028;-63
2022/01/01 00:15:20;;;;;;;20.33;14.75;;;;;;;11.35;100.00;102389.53;5228429;28;20032;-63
2022/01/01 00:17:51;;;;;;;18.58;14.23;;;;;;;11.33;100.00;102395.19;5228805;28;20025;-62
2022/01/01 00:20:21;;;;;;;29.13;16.98;;;;;;;11.33;100.00;102395.19;5226959;28;20047;-64
2022/01/01 00:22:52;;;;;;;18.33;15.63;;;;;;;11.31;100.00;102397.28;5228095;28;20021;-64
2022/01/01 00:25:22;;;;;;;26.25;18.95;;;;;;;11.29;100.00;102396.66;5227302;28;20080;-63
2022/01/01 00:27:53;;;;;;;23.98;21.40;;;;;;;11.23;100.00;102388.66;5227515;28;20561;-64
2022/01/01 00:30:24;;;;;;;20.98;19.05;;;;;;;11.26;100.00;102391.69;5227368;28;20497;-63
2022/01/01 00:32:54;;;;;;;18.90;17.38;;;;;;;11.24;100.00;102380.31;5227776;28;20025;-64
2022/01/01 00:35:25;;;;;;;20.70;18.13;;;;;;;11.20;100.00;102367.44;5227699;28;20086;-64
2022/01/01 00:37:55;;;;;;;22.35;17.60;;;;;;;11.27;100.00;102376.31;5228136;28;20025;-64
2022/01/01 00:40:26;;;;;;;25.73;17.83;;;;;;;11.25;100.00;102373.84;5228485;28;20035;-64
2022/01/01 00:42:56;;;;;;;17.98;16.42;;;;;;;11.27;100.00;102379.84;5229617;28;20437;-61
2022/01/01 00:45:27;;;;;;;20.60;18.33;;;;;;;11.09;100.00;102355.47;5227251;28;20059;-63
2022/01/01 00:47:57;;;;;;;22.63;20.20;;;;;;;11.18;100.00;102373.09;5228220;28;20025;-64
2022/01/01 00:50:28;;;;;;;20.75;18.80;;;;;;;11.17;100.00;102379.53;5228276;28;20032;-64
2022/01/01 00:52:59;;;;;;;25.05;21.60;;;;;;;11.14;100.00;102382.69;5229303;28;20116;-63
2022/01/01 00:55:29;;;;;;;21.83;19.63;;;;;;;10.99;100.00;102368.66;5228800;28;20024;-62
2022/01/01 00:58:00;;;;;;;24.48;18.83;;;;;;;10.99;100.00;102371.38;5229824;28;20059;-63
2022/01/01 01:00:30;;;;;;;20.48;18.20;;;;;;;10.83;100.00;102381.72;5229156;28;20020;-68
2022/01/01 01:03:08;;;;;;;22.73;19.73;;;;;;;10.71;100.00;102375.34;5229220;28;20021;-64
2022/01/01 01:05:39;;;;;;;24.15;20.98;;;;;;;10.60;100.00;102386.06;5229193;28;20025;-63
2022/01/01 01:08:11;;;;;;;24.98;22.50;;;;;;;10.50;100.00;102381.13;5229417;28;20457;-64
2022/01/01 01:10:45;;;;;;;22.83;20.60;;;;;;;10.28;100.00;102363.63;5229999;28;20077;-62
2022/01/01 01:13:16;;;;;;;27.42;24.55;;;;;;;10.35;100.00;102378.75;5230059;28;20033;-63
2022/01/01 01:15:47;;;;;;;41.55;26.33;;;;;;;10.27;100.00;102373.59;5230590;28;20025;-63
2022/01/01 01:18:18;;;;;;;26.02;22.40;;;;;;;10.25;100.00;102391.88;5230951;28;20029;-63
2022/01/01 01:20:48;;;;;;;33.20;25.63;;;;;;;10.12;100.00;102381.09;5230695;28;20508;-64
2022/01/01 01:23:19;;;;;;;27.63;24.95;;;;;;;10.05;100.00;102385.72;5230830;28;20017;-63
2022/01/01 01:25:49;;;;;;;30.58;24.27;;;;;;;9.95;100.00;102380.78;5232790;28;20088;-63
2022/01/01 01:28:20;;;;;;;28.25;23.45;;;;;;;9.94;100.00;102383.69;5231307;28;20028;-64
2022/01/01 01:30:50;;;;;;;29.77;26.40;;;;;;;9.69;100.00;102362.00;5229783;28;20025;-61
2022/01/01 01:33:20;;;;;;;25.13;23.02;;;;;;;9.83;100.00;102402.19;5229168;28;20016;-62
2022/01/01 01:35:51;;;;;;;24.77;22.02;;;;;;;9.69;100.00;102391.69;5229141;28;20052;-62
2022/01/01 01:38:21;;;;;;;26.80;19.45;;;;;;;9.56;100.00;102383.63;5228041;28;20055;-61
2022/01/01 01:40:52;;;;;;;24.25;21.75;;;;;;;9.69;100.00;102410.56;5227447;28;20503;-64
2022/01/01 01:43:22;;;;;;;25.20;19.20;;;;;;;9.75;100.00;102409.72;5228076;28;20025;-62
2022/01/01 01:45:53;;;;;;;38.05;22.92;;;;;;;9.77;100.00;102407.66;5228737;28;20029;-62
2022/01/01 01:48:23;;;;;;;22.48;20.20;;;;;;;9.73;100.00;102399.16;5227484;28;20079;-63
2022/01/01 01:50:56;;;;;;;22.38;20.33;;;;;;;9.96;100.00;102420.22;5228192;28;20025;-63
2022/01/01 01:53:27;;;;;;;32.15;20.25;;;;;;;9.89;100.00;102391.59;5227929;28;20033;-62
2022/01/01 01:55:59;;;;;;;24.77;21.20;;;;;;;10.15;100.00;102419.28;5227131;28;20101;-63
2022/01/01 01:58:30;;;;;;;25.77;23.27;;;;;;;10.22;100.00;102410.38;5227884;28;20047;-63
2022/01/01 02:03:50;;;;;;;20.13;16.30;;;;;;;10.29;100.00;102405.78;5229278;28;20041;-63
2022/01/01 02:06:21;;;;;;;23.75;20.90;;;;;;;10.30;100.00;102399.34;5228106;28;20368;-63
2022/01/01 02:08:52;;;;;;;24.23;21.83;;;;;;;10.42;100.00;102411.91;5227690;28;20029;-62
2022/01/01 02:11:23;;;;;;;31.02;23.08;;;;;;;10.44;100.00;102399.03;5227958;28;20029;-63
2022/01/01 02:18:55;;;;;;;23.85;21.38;;;;;;;10.46;100.00;102394.22;5231870;28;20037;-63
2022/01/01 02:21:26;;;;;;;22.25;19.65;;;;;;;10.54;100.00;102398.56;5226966;28;20025;-62
2022/01/01 02:23:59;;;;;;;21.00;18.08;;;;;;;10.57;100.00;102416.19;5227431;28;20036;-63
2022/01/01 02:26:34;;;;;;;30.17;19.15;;;;;;;10.54;100.00;102406.66;5228089;28;20028;-63
2022/01/01 02:29:05;;;;;;;21.55;16.55;;;;;;;10.57;100.00;102417.03;5227701;28;20499;-63
2022/01/01 02:31:35;;;;;;;20.27;16.50;;;;;;;10.60;100.00;102411.19;5228228;28;20033;-63
2022/01/01 02:34:07;;;;;;;17.27;15.60;;;;;;;10.61;100.00;102402.03;5228192;28;20473;-63
2022/01/01 02:36:42;;;;;;;16.73;15.25;;;;;;;10.64;100.00;102398.91;5229179;28;20106;-66
2022/01/01 02:39:19;;;;;;;18.05;15.95;;;;;;;10.64;100.00;102404.31;5228702;28;20052;-63
2022/01/01 02:41:53;;;;;;;15.32;13.82;;;;;;;10.60;100.00;102380.66;5228060;28;20025;-62
2022/01/01 02:44:26;;;;;;;18.15;14.68;;;;;;;10.67;100.00;102394.94;5229903;28;20550;-63
2022/01/01 02:46:57;;;;;;;16.25;13.68;;;;;;;10.65;100.00;102397.88;5231992;28;20064;-63
2022/01/01 02:49:27;;;;;;;18.30;14.35;;;;;;;10.66;100.00;102386.00;5233220;28;20029;-63
2022/01/01 02:51:57;;;;;;;14.80;13.32;;;;;;;10.61;100.00;102376.91;5232814;28;20059;-62
2022/01/01 02:54:28;;;;;;;15.85;11.25;;;;;;;10.63;100.00;102367.53;5232153;28;20032;-63
2022/01/01 02:56:58;;;;;;;16.67;12.50;;;;;;;10.68;100.00;102373.09;5232603;28;20025;-62
2022/01/01 02:59:29;;;;;;;14.32;12.73;;;;;;;10.76;100.00;102375.53;5233164;28;20080;-63
2022/01/01 03:01:59;;;;;;;14.43;12.50;;;;;;;10.75;100.00;102379.25;5233167;28;20037;-63
2022/01/01 03:04:30;;;;;;;18.92;11.57;;;;;;;10.80;100.00;102382.13;5233101;28;20538;-64
2022/01/01 03:07:01;;;;;;;20.77;13.40;;;;;;;10.72;100.00;102357.25;5233121;28;20025;-63
2022/01/01 03:09:37;;;;;;;13.95;12.05;;;;;;;10.81;100.00;102378.41;5232518;28;20401;-63
2022/01/01 03:12:09;;;;;;;15.07;11.95;;;;;;;10.84;100.00;102377.13;5232133;28;20025;-63
2022/01/01 03:14:40;;;;;;;20.48;11.02;;;;;;;10.86;100.00;102380.44;5231857;28;20029;-63
2022/01/01 03:17:11;;;;;;;21.13;11.95;;;;;;;10.82;100.00;102371.94;5232190;28;20029;-62
2022/01/01 03:19:42;;;;;;;12.70;11.40;;;;;;;10.81;100.00;102385.66;5232467;28;20024;-62
2022/01/01 03:22:12;;;;;;;11.68;10.65;;;;;;;10.67;100.00;102362.53;5232849;28;20439;-62
2022/01/01 03:24:43;;;;;;;18.77;12.63;;;;;;;10.83;100.00;102394.38;5232155;28;20017;-62
2022/01/01 03:27:13;;;;;;;13.93;12.52;;;;;;;10.79;100.00;102391.28;5232076;28;20024;-62
2022/01/01 03:29:44;;;;;;;19.63;8.18;;;;;;;10.86;100.00;102399.34;5232295;28;20039;-62
2022/01/01 03:32:15;;;;;;;16.33;10.32;;;;;;;10.89;100.00;102398.09;5232309;28;20025;-65
2022/01/01 03:34:46;;;;;;;12.73;10.30;;;;;;;10.82;100.00;102390.84;5232229;28;20029;-60
2022/01/01 03:37:16;;;;;;;14.68;8.93;;;;;;;10.90;100.00;102400.56;5232625;28;20481;-62
2022/01/01 03:39:47;;;;;;;11.60;10.43;;;;;;;10.84;100.00;102390.63;5232765;28;20032;-62
2022/01/01 03:42:20;;;;;;;12.60;11.38;;;;;;;10.90;100.00;102392.47;5232356;28;20374;-63
2022/01/01 03:44:51;;;;;;;12.57;11.63;;;;;;;10.86;100.00;102388.53;5232917;28;20043;-68
2022/01/01 03:47:22;;;;;;;15.13;12.60;;;;;;;10.88;100.00;102397.25;5232573;28;20028;-63
2022/01/01 03:49:52;;;;;;;17.75;10.95;;;;;;;10.86;100.00;102398.53;5232581;28;20032;-63
2022/01/01 03:52:23;;;;;;;16.55;12.05;;;;;;;10.71;100.00;102374.53;5231684;28;20036;-63
2022/01/01 03:54:53;;;;;;;12.52;11.25;;;;;;;10.83;100.00;102394.38;5231365;28;20029;-63
2022/01/01 03:57:24;;;;;;;13.02;11.70;;;;;;;10.82;100.00;102380.03;5232076;28;20021;-62
2022/01/01 03:59:54;;;;;;;14.13;10.98;;;;;;;10.77;100.00;102373.66;5230912;28;20048;-63
2022/01/01 04:02:24;;;;;;;12.25;11.07;;;;;;;10.83;100.00;102379.00;5232112;28;20323;-63
2022/01/01 04:04:55;;;;;;;16.73;11.60;;;;;;;10.83;100.00;102373.59;5231297;28;20056;-67
2022/01/01 04:07:25;;;;;;;12.93;11.88;;;;;;;10.77;100.00;102360.97;5231338;28;20131;-64
2022/01/01 04:09:57;;;;;;;14.52;11.13;;;;;;;10.85;100.00;102375.25;5231299;28;20025;-62
2022/01/01 04:12:27;;;;;;;14.45;11.32;;;;;;;10.87;100.00;102370.47;5232988;28;20032;-63
2022/01/01 04:15:00;;;;;;;15.13;10.63;;;;;;;10.90;100.00;102378.97;5232509;28;20071;-63
2022/01/01 04:17:35;;;;;;;10.60;9.70;;;;;;;10.88;100.00;102372.13;5232578;28;20029;-63
2022/01/01 04:20:07;;;;;;;11.27;10.30;;;;;;;10.91;100.00;102368.97;5231176;28;20090;-64
2022/01/01 04:22:37;;;;;;;12.00;9.15;;;;;;;10.91;100.00;102371.69;5232447;28;20025;-63
2022/01/01 04:25:08;;;;;;;14.10;10.10;;;;;;;10.90;100.00;102364.63;5231284;28;20021;-63
2022/01/01 04:27:38;;;;;;;11.95;10.77;;;;;;;10.86;100.00;102368.81;5231021;28;20024;-64
2022/01/01 04:30:09;;;;;;;15.77;8.30;;;;;;;10.67;100.00;102346.31;5232587;28;20024;-62
2022/01/01 04:32:40;;;;;;;17.35;10.27;;;;;;;10.80;100.00;102368.63;5232352;28;20111;-64
2022/01/01 04:35:11;;;;;;;10.73;9.68;;;;;;;10.89;100.00;102380.00;5231223;28;20028;-64
2022/01/01 04:37:41;;;;;;;14.27;9.43;;;;;;;10.76;100.00;102359.31;5230452;28;20025;-63
2022/01/01 04:40:12;;;;;;;18.88;9.32;;;;;;;10.87;100.00;102383.97;5230854;28;20528;-63
2022/01/01 04:42:43;;;;;;;9.02;8.18;;;;;;;10.88;100.00;102383.75;5230391;28;20048;-64
2022/01/01 04:45:14;;;;;;;15.05;8.07;;;;;;;10.90;100.00;102402.44;5230722;28;20032;-63
2022/01/01 04:47:44;;;;;;;9.00;7.80;;;;;;;10.90;100.00;102403.28;5230581;28;20031;-63
2022/01/01 04:50:14;;;;;;;11.27;7.65;;;;;;;10.92;100.00;102398.47;5230326;28;20033;-66
2022/01/01 04:52:45;;;;;;;15.20;9.65;;;;;;;10.92;100.00;102398.47;5230293;28;20029;-63
2022/01/01 04:55:16;;;;;;;9.18;8.27;;;;;;;10.92;100.00;102392.25;5229265;28;20029;-63
2022/01/01 04:57:46;;;;;;;10.50;8.27;;;;;;;10.93;100.00;102399.31;5230185;28;20032;-64
2022/01/01 05:00:17;;;;;;;14.55;10.10;;;;;;;10.92;100.00;102394.94;5229814;28;20024;-61
2022/01/01 05:02:47;;;;;;;8.15;7.47;;;;;;;10.92;100.00;102398.47;5230318;28;20021;-62
2022/01/01 05:05:17;;;;;;;15.73;10.18;;;;;;;10.93;100.00;102400.13;5230034;28;20082;-63
2022/01/01 05:07:48;;;;;;;8.38;7.40;;;;;;;10.95;100.00;102399.91;5229411;28;20028;-64
2022/01/01 05:10:18;;;;;;;9.85;8.57;;;;;;;10.94;100.00;102409.06;5230055;28;20035;-63
2022/01/01 05:12:49;;;;;;;13.38;7.68;;;;;;;10.76;100.00;102378.22;5229396;28;20029;-66
2022/01/01 05:15:19;;;;;;;9.10;7.70;;;;;;;10.81;100.00;102389.19;5228591;28;20134;-62
2022/01/01 05:17:50;;;;;;;8.32;6.60;;;;;;;10.88;100.00;102404.53;5228894;28;20031;-63
2022/01/01 05:20:21;;;;;;;8.77;8.00;;;;;;;10.78;100.00;102413.13;5229483;28;20031;-63
2022/01/01 05:22:52;;;;;;;7.25;6.55;;;;;;;10.55;100.00;102402.91;5228402;28;20021;-64
2022/01/01 05:25:22;;;;;;;13.40;7.63;;;;;;;10.46;100.00;102412.31;5228734;28;20021;-63
2022/01/01 05:27:53;;;;;;;7.97;7.22;;;;;;;10.19;100.00;102397.28;5228351;28;20032;-64
2022/01/01 05:30:23;;;;;;;9.90;8.77;;;;;;;10.10;100.00;102404.81;5229319;28;20309;-63
2022/01/01 05:32:54;;;;;;;13.93;8.82;;;;;;;9.96;100.00;102408.59;5229802;28;20139;-63
2022/01/01 05:35:24;;;;;;;14.20;8.68;;;;;;;9.87;100.00;102426.06;5229765;28;20432;-63
2022/01/01 05:37:55;;;;;;;11.50;8.60;;;;;;;9.75;100.00;102424.03;5230163;28;20025;-63
2022/01/01 05:40:25;;;;;;;12.05;7.55;;;;;;;9.58;100.00;102403.94;5229463;28;20029;-63
2022/01/01 05:42:56;;;;;;;8.88;8.07;;;;;;;9.50;100.00;102409.59;5229248;28;20032;-63
2022/01/01 05:45:27;;;;;;;8.43;7.70;;;;;;;9.42;100.00;102416.03;5228937;28;20087;-63
2022/01/01 05:47:57;;;;;;;8.88;8.18;;;;;;;9.34;100.00;102410.84;5229576;28;20029;-62
2022/01/01 05:50:27;;;;;;;24.42;9.35;;;;;;;9.26;100.00;102416.44;5229556;28;20021;-63
2022/01/01 05:52:59;;;;;;;7.63;6.82;;;;;;;9.21;100.00;102404.66;5229643;28;20060;-62
2022/01/01 05:55:29;;;;;;;17.13;9.68;;;;;;;9.23;100.00;102408.81;5230341;28;20048;-63
2022/01/01 05:58:00;;;;;;;8.68;7.88;;;;;;;9.11;100.00;102388.91;5230463;28;20028;-64
2022/01/01 06:00:31;;;;;;;11.43;8.65;;;;;;;9.09;100.00;102383.72;5228227;28;20024;-63
2022/01/01 06:03:01;;;;;;;8.70;7.90;;;;;;;9.00;100.00;102373.34;5228094;28;20020;-64
2022/01/01 06:05:32;;;;;;;9.07;8.25;;;;;;;8.98;100.00;102372.72;5227734;28;20028;-63
2022/01/01 06:08:03;;;;;;;15.65;8.05;;;;;;;9.03;100.00;102387.25;5227000;28;20033;-62
2022/01/01 06:10:33;;;;;;;8.95;6.47;;;;;;;8.96;100.00;102386.41;5226443;28;20500;-63
2022/01/01 06:13:07;;;;;;;14.70;8.93;;;;;;;9.00;100.00;102397.59;5226291;28;20033;-63
2022/01/01 06:15:37;;;;;;;12.68;9.70;;;;;;;8.97;100.00;102414.19;5226001;28;20029;-63
2022/01/01 06:18:08;;;;;;;12.95;9.07;;;;;;;8.90;100.00;102403.44;5226029;28;20050;-63
2022/01/01 06:20:38;;;;;;;9.00;8.30;;;;;;;8.93;100.00;102402.19;5228930;28;20291;-63
2022/01/01 06:23:09;;;;;;;10.52;9.10;;;;;;;8.93;100.00;102405.72;5230847;28;20025;-63
2022/01/01 06:25:39;;;;;;;14.70;8.43;;;;;;;8.84;100.00;102388.09;5229416;28;20024;-63
2022/01/01 06:28:10;;;;;;;8.75;7.97;;;;;;;8.97;100.00;102403.41;5229470;28;20397;-63
2022/01/01 06:30:40;;;;;;;23.90;9.85;;;;;;;8.97;100.00;102404.25;5229373;28;20388;-63
2022/01/01 06:33:13;;;;;;;13.10;7.50;;;;;;;9.04;100.00;102401.53;5228927;28;20037;-63
2022/01/01 06:35:45;;;;;;;11.80;9.73;;;;;;;9.10;100.00;102395.34;5229189;28;20025;-63
2022/01/01 06:38:16;;;;;;;10.68;9.00;;;;;;;9.22;100.00;102384.75;5229427;28;20041;-63
2022/01/01 06:40:47;;;;;;;10.65;9.75;;;;;;;9.28;100.00;102384.72;5229725;28;20032;-64
2022/01/01 06:43:21;;;;;;;19.92;9.90;;;;;;;9.21;100.00;102356.97;5228978;28;20356;-63
2022/01/01 06:45:51;;;;;;;10.85;9.63;;;;;;;9.39;100.00;102386.78;5229374;28;20108;-63
2022/01/01 06:48:22;;;;;;;9.00;7.93;;;;;;;9.48;100.00;102385.53;5229566;28;20119;-63
2022/01/01 06:50:52;;;;;;;8.75;8.02;;;;;;;9.51;100.00;102380.75;5229098;28;20029;-63
2022/01/01 06:53:23;;;;;;;8.45;7.53;;;;;;;9.46;100.00;102357.13;5228887;28;20053;-62
2022/01/01 06:55:53;;;;;;;15.90;10.07;;;;;;;9.61;100.00;102378.44;5228968;28;20056;-63
2022/01/01 06:58:24;;;;;;;13.45;9.02;;;;;;;9.65;100.00;102395.84;5230525;28;20021;-63
2022/01/01 07:00:54;;;;;;;13.68;9.40;;;;;;;9.65;100.00;102406.63;5228665;28;20087;-63
2022/01/01 07:03:25;;;;;;;8.88;8.27;;;;;;;9.61;100.00;102410.78;5228632;28;20016;-63
2022/01/01 07:05:55;;;;;;;12.30;10.45;;;;;;;9.55;100.00;102406.22;5228949;28;20572;-63
2022/01/01 07:08:26;;;;;;;16.05;8.93;;;;;;;9.47;100.00;102404.63;5228331;28;20063;-62
2022/01/01 07:10:56;;;;;;;9.40;8.70;;;;;;;9.39;100.00;102400.25;5228613;28;20116;-63
2022/01/01 07:13:27;;;;;;;11.77;8.25;;;;;;;9.25;100.00;102395.09;5228037;28;20402;-63
2022/01/01 07:15:57;;;;;;;14.07;7.65;;;;;;;9.23;100.00;102410.69;5228610;28;20082;-63
2022/01/01 07:18:27;;;;;;;9.30;8.35;;;;;;;9.09;100.00;102412.53;5228498;28;20057;-63
2022/01/01 07:20:58;;;;;;;8.77;8.07;;;;;;;9.02;100.00;102411.69;5228156;28;20029;-63
2022/01/01 07:23:28;;;;;;;8.38;7.13;;;;;;;9.00;100.00;102417.28;5227447;28;20401;-61
2022/01/01 07:25:59;;;;;;;12.77;8.68;;;;;;;8.91;100.00;102399.69;5227887;28;20179;-63
2022/01/01 07:28:29;;;;;;;9.40;8.60;;;;;;;9.00;100.00;102421.84;5227789;28;20025;-62
2022/01/01 07:31:00;;;;;;;8.80;7.93;;;;;;;8.93;100.00;102423.75;5226878;28;20025;-63
2022/01/01 07:33:30;;;;;;;9.50;8.82;;;;;;;8.83;100.00;102415.22;5227398;28;20077;-63
2022/01/01 07:36:01;;;;;;;13.30;8.63;;;;;;;8.89;100.00;102422.50;5227916;28;20029;-63
2022/01/01 07:38:31;;;;;;;9.98;8.55;;;;;;;8.90;100.00;102429.53;5227231;28;20434;-62
2022/01/01 07:41:02;;;;;;;9.30;8.43;;;;;;;8.86;100.00;102423.72;5227272;28;20401;-63
2022/01/01 07:43:32;;;;;;;9.32;7.82;;;;;;;8.80;100.00;102425.38;5227151;28;20035;-64
2022/01/01 07:46:03;;;;;;;10.05;7.07;;;;;;;8.75;100.00;102424.34;5228582;28;20029;-64
2022/01/01 07:48:33;;;;;;;8.20;7.45;;;;;;;8.73;100.00;102429.09;5227328;28;20029;-64
2022/01/01 07:51:04;;;;;;;9.73;8.23;;;;;;;8.59;100.00;102414.78;5227308;28;20119;-64
2022/01/01 07:53:34;;;;;;;11.50;9.25;;;;;;;8.64;100.00;102431.19;5227020;28;20393;-62
2022/01/01 07:56:05;;;;;;;12.75;9.07;;;;;;;8.63;100.00;102432.22;5227259;28;20503;-64
2022/01/01 07:58:35;;;;;;;9.48;8.70;;;;;;;8.60;100.00;102424.53;5227150;28;20480;-63
2022/01/01 08:01:06;;;;;;;11.07;8.80;;;;;;;8.58;100.00;102423.91;5227085;28;20125;-64
2022/01/01 08:03:36;;;;;;;11.88;10.40;;;;;;;8.64;100.00;102431.19;5227050;28;20036;-62
2022/01/01 08:06:07;;;;;;;12.38;7.72;;;;;;;8.65;100.00;102426.63;5227252;28;20029;-61
2022/01/01 08:08:37;;;;;;;11.95;8.75;;;;;;;8.67;100.00;102436.13;5226690;28;20024;-63
2022/01/01 08:11:08;;;;;;;10.70;9.77;;;;;;;8.67;100.00;102435.28;5226878;28;20031;-63
2022/01/01 08:13:38;;;;;;;16.27;11.65;;;;;;;8.33;100.00;102377.88;5226958;28;20550;-63
2022/01/01 08:16:09;;;;;;;10.60;9.10;;;;;;;8.72;100.00;102436.34;5227317;28;20036;-66
2022/01/01 08:18:39;;;;;;;18.83;9.65;;;;;;;8.69;100.00;102431.38;5227202;28;20481;-63
2022/01/01 08:21:10;;;;;;;12.07;9.05;;;;;;;8.79;100.00;102439.06;5227143;28;20021;-62
2022/01/01 08:23:40;;;;;;;14.60;9.32;;;;;;;8.83;100.00;102444.88;5227414;28;20025;-63
2022/01/01 08:26:11;;;;;;;12.35;9.98;;;;;;;8.83;100.00;102452.94;5228279;28;20040;-63
2022/01/01 08:28:41;;;;;;;9.95;9.23;;;;;;;8.82;100.00;102460.19;5228245;28;20033;-63
2022/01/01 08:31:12;;;;;;;9.13;7.90;;;;;;;8.77;100.00;102447.34;5227490;28;20035;-63
2022/01/01 08:33:42;;;;;;;17.42;10.93;;;;;;;8.80;100.00;102452.31;5226941;28;20029;-62
2022/01/01 08:36:14;;;;;;;9.02;8.38;;;;;;;8.82;100.00;102448.59;5227648;28;20112;-63
2022/01/01 08:38:45;;;;;;;9.57;8.57;;;;;;;8.84;100.00;102447.34;5228095;28;20047;-62
2022/01/01 08:41:16;;;;;;;16.02;9.20;;;;;;;8.89;100.00;102458.34;5227354;28;20025;-63
2022/01/01 08:43:46;;;;;;;9.90;8.82;;;;;;;8.94;100.00;102457.72;5227785;28;20021;-64
2022/01/01 08:46:17;;;;;;;13.52;10.63;;;;;;;8.97;100.00;102446.50;5227741;28;20460;-63
2022/01/01 08:48:47;;;;;;;11.50;10.27;;;;;;;9.03;100.00;102443.00;5228124;28;20047;-63
2022/01/01 08:51:20;;;;;;;10.80;8.77;;;;;;;9.06;100.00;102437.19;5227614;28;20101;-63
2022/01/01 08:53:50;;;;;;;12.52;9.73;;;;;;;9.14;100.00;102434.31;5227690;28;20056;-66
2022/01/01 08:56:21;;;;;;;10.18;9.05;;;;;;;9.21;100.00;102447.78;5227925;28;20067;-63
2022/01/01 08:58:52;;;;;;;11.35;9.35;;;;;;;9.23;100.00;102430.38;5227942;28;20403;-63
2022/01/01 09:01:22;;;;;;;16.60;9.52;;;;;;;9.30;100.00;102425.78;5227648;28;20027;-63
2022/01/01 09:03:54;;;;;;;10.70;8.52;;;;;;;9.33;100.00;102440.72;5227001;28;20508;-63
2022/01/01 09:06:25;;;;;;;14.77;9.40;;;;;;;9.34;100.00;102448.59;5227645;28;20021;-63
2022/01/01 09:08:56;;;;;;;10.25;9.02;;;;;;;9.32;100.00;102436.34;5226952;28;20405;-66
2022/01/01 09:11:26;;;;;;;9.05;8.18;;;;;;;9.39;100.00;102435.31;5227005;28;20025;-63
2022/01/01 09:13:56;;;;;;;8.82;8.18;;;;;;;9.44;100.00;102440.91;5226404;28;20028;-61
2022/01/01 09:16:29;;;;;;;9.43;8.50;;;;;;;9.47;100.00;102437.81;5228044;28;20397;-63
2022/01/01 09:19:00;;;;;;;14.27;8.82;;;;;;;9.56;100.00;102449.19;5226493;28;20020;-63
2022/01/01 09:21:31;;;;;;;14.70;10.43;;;;;;;9.60;100.00;102442.31;5226450;28;20047;-63
2022/01/01 09:24:02;;;;;;;8.80;8.15;;;;;;;9.66;100.00;102440.66;5226287;28;20073;-63
2022/01/01 09:26:32;;;;;;;10.05;9.25;;;;;;;9.68;100.00;102422.41;5226232;28;20119;-63
2022/01/01 09:29:04;;;;;;;10.55;9.55;;;;;;;9.53;100.00;102392.97;5226385;28;20028;-63
2022/01/01 09:31:35;;;;;;;8.90;8.10;;;;;;;9.84;100.00;102421.91;5226181;28;20397;-63
2022/01/01 09:34:05;;;;;;;12.32;9.73;;;;;;;9.80;100.00;102405.34;5225971;28;20036;-63
2022/01/01 09:36:36;;;;;;;12.63;9.38;;;;;;;9.96;100.00;102414.81;5225785;28;20032;-63
2022/01/01 09:39:07;;;;;;;8.38;7.57;;;;;;;9.79;100.00;102376.72;5225273;28;20028;-63
2022/01/01 09:41:41;;;;;;;7.13;6.60;;;;;;;10.02;100.00;102413.16;5225430;28;20473;-62
2022/01/01 09:44:14;;;;;;;10.38;7.32;;;;;;;10.01;100.00;102395.28;5225440;28;20025;-63
2022/01/01 09:46:48;;;;;;;13.70;9.15;;;;;;;10.04;100.00;102409.19;5225106;28;20139;-64
2022/01/01 09:49:19;;;;;;;8.98;8.07;;;;;;;9.95;100.00;102401.53;5225238;28;20032;-62
2022/01/01 09:51:50;;;;;;;10.98;8.13;;;;;;;10.08;100.00;102407.72;5225146;28;20536;-63
2022/01/01 09:54:20;;;;;;;9.30;7.90;;;;;;;10.10;100.00;102404.81;5224737;28;20025;-63
2022/01/01 09:56:51;;;;;;;9.13;8.05;;;;;;;10.12;100.00;102392.72;5225811;28;20040;-63
2022/01/01 09:59:21;;;;;;;10.80;7.80;;;;;;;10.14;100.00;102390.66;5225656;28;20049;-62
2022/01/01 10:01:52;;;;;;;10.75;7.07;;;;;;;10.06;100.00;102372.03;5225133;28;20028;-66
2022/01/01 10:04:22;;;;;;;8.07;6.75;;;;;;;10.04;100.00;102365.19;5224599;28;20504;-63
2022/01/01 10:07:04;;;;;;;9.02;8.38;;;;;;;10.26;100.00;102387.31;5225829;28;20025;-61
2022/01/01 10:09:39;;;;;;;16.08;9.50;;;;;;;10.29;100.00;102395.81;5225930;28;20024;-62
2022/01/01 10:12:15;;;;;;;6.65;6.05;;;;;;;10.34;100.00;102387.06;5225777;28;20035;-62
2022/01/01 10:14:48;;;;;;;7.97;7.30;;;;;;;10.39;100.00;102389.94;5225543;28;20476;-63
2022/01/01 10:17:21;;;;;;;7.57;6.88;;;;;;;10.46;100.00;102388.00;5224774;28;20136;-62
2022/01/01 10:19:53;;;;;;;7.07;6.57;;;;;;;10.43;100.00;102373.06;5226831;28;20396;-63
2022/01/01 10:22:24;;;;;;;11.85;7.80;;;;;;;10.58;100.00;102380.88;5226822;28;20033;-63
2022/01/01 10:28:02;;;;;;;7.35;6.65;;;;;;;10.66;100.00;102375.19;5227253;28;20044;-63
2022/01/01 10:30:36;;;;;;;8.63;6.68;;;;;;;10.67;100.00;102379.56;5225238;28;20048;-63
2022/01/01 10:33:08;;;;;;;6.70;6.20;;;;;;;10.69;100.00;102369.34;5225866;28;20465;-63
2022/01/01 10:35:47;;;;;;;7.15;6.35;;;;;;;10.70;100.00;102359.34;5226241;28;20029;-63
2022/01/01 10:38:22;;;;;;;8.70;8.00;;;;;;;10.74;100.00;102356.00;5226506;28;20025;-63
2022/01/01 10:41:08;;;;;;;7.57;6.88;;;;;;;10.78;100.00;102362.63;5226215;28;20508;-62
2022/01/01 10:43:41;;;;;;;8.45;6.32;;;;;;;10.76;100.00;102353.91;5225727;28;20499;-63
2022/01/01 10:46:18;;;;;;;8.25;6.32;;;;;;;10.65;100.00;102337.59;5226000;28;20514;-62
2022/01/01 10:49:09;;;;;;;9.02;7.85;;;;;;;10.78;100.00;102354.50;5226167;28;20025;-62
2022/01/01 10:51:39;;;;;;;6.85;6.35;;;;;;;10.80;100.00;102341.59;5226429;28;20485;-63
2022/01/01 10:54:10;;;;;;;6.18;5.75;;;;;;;10.81;100.00;102340.56;5226467;28;20024;-66
2022/01/01 10:56:40;;;;;;;6.20;5.72;;;;;;;10.63;100.00;102293.75;5226237;28;20074;-63
2022/01/01 10:59:12;;;;;;;6.13;5.75;;;;;;;10.94;100.00;102336.09;5226203;28;20017;-62
2022/01/01 11:01:44;;;;;;;13.73;6.53;;;;;;;10.99;100.00;102330.81;5226718;28;20393;-63
2022/01/01 11:04:16;;;;;;;6.65;5.28;;;;;;;10.92;100.00;102297.66;5226655;28;20033;-64
2022/01/01 11:06:46;;;;;;;6.68;6.28;;;;;;;10.96;100.00;102296.16;5230122;28;20028;-63
2022/01/01 11:09:18;;;;;;;5.05;4.65;;;;;;;11.15;100.00;102317.56;5231925;28;20064;-63
2022/01/01 11:11:49;;;;;;;6.20;5.80;;;;;;;11.25;100.00;102317.06;5230679;28;20401;-63
2022/01/01 11:14:21;;;;;;;4.47;4.25;;;;;;;11.26;100.00;102315.19;5230099;28;20092;-63
2022/01/01 11:16:52;;;;;;;7.22;6.55;;;;;;;11.14;100.00;102269.13;5230066;28;20493;-63
2022/01/01 11:19:24;;;;;;;7.78;5.72;;;;;;;11.55;100.00;102300.06;5230688;28;20027;-62
2022/01/01 11:21:55;;;;;;;5.43;5.03;;;;;;;11.63;100.00;102305.16;5231399;28;20469;-63
2022/01/01 11:24:27;;;;;;;6.95;5.50;;;;;;;11.63;100.00;102288.91;5231033;28;20039;-63
2022/01/01 11:26:57;;;;;;;5.07;4.78;;;;;;;11.64;100.00;102267.03;5230398;28;20404;-64
2022/01/01 11:29:28;;;;;;;5.15;4.85;;;;;;;11.88;100.00;102300.47;5230318;28;20029;-68
2022/01/01 11:31:58;;;;;;;13.00;7.15;;;;;;;11.95;100.00;102306.63;5230473;28;20024;-63
2022/01/01 11:34:31;;;;;;;4.45;4.10;;;;;;;11.91;100.00;102304.59;5229621;28;20032;-63
2022/01/01 11:37:03;;;;;;;5.63;5.05;;;;;;;11.96;100.00;102308.28;5229971;28;20032;-64
2022/01/01 11:39:33;;;;;;;8.70;5.55;;;;;;;11.96;100.00;102307.44;5229665;28;20135;-63